createdAt,value
2017-12-29T00:00:19.212Z,4.34
2017-12-29T00:01:19.187Z,4.31
2017-12-29T00:02:19.162Z,4.24
2017-12-29T00:03:19.140Z,4.39
2017-12-29T00:04:19.117Z,4.31
2017-12-29T00:05:19.102Z,4.30
2017-12-29T00:06:19.072Z,4.32
2017-12-29T00:07:19.043Z,4.30
2017-12-29T00:08:19.021Z,4.32
2017-12-29T00:09:19.003Z,4.36
2017-12-29T00:10:18.988Z,4.30
2017-12-29T00:11:19.104Z,4.27
2017-12-29T00:12:18.937Z,4.30
2017-12-29T00:13:18.915Z,4.38
2017-12-29T00:14:18.990Z,4.31
2017-12-29T00:15:18.886Z,4.39
2017-12-29T00:16:18.831Z,4.30
2017-12-29T00:17:18.808Z,4.30
2017-12-29T00:18:18.784Z,4.30
2017-12-29T00:19:18.758Z,4.30
2017-12-29T00:20:18.733Z,4.38
2017-12-29T00:21:18.718Z,4.25
2017-12-29T00:22:18.710Z,4.25
2017-12-29T00:23:18.678Z,4.22
2017-12-29T00:24:18.638Z,4.22
2017-12-29T00:25:18.617Z,4.25
2017-12-29T00:26:18.599Z,4.22
2017-12-29T00:27:18.570Z,4.22
2017-12-29T00:28:18.549Z,4.22
2017-12-29T00:29:18.526Z,4.25
2017-12-29T00:30:18.497Z,4.28
2017-12-29T00:31:18.473Z,4.22
2017-12-29T00:32:18.448Z,4.21
2017-12-29T00:33:18.428Z,4.22
2017-12-29T00:34:18.402Z,4.24
2017-12-29T00:35:18.376Z,4.25
2017-12-29T00:36:18.351Z,4.30
2017-12-29T00:37:18.342Z,4.28
2017-12-29T00:38:18.307Z,4.22
2017-12-29T00:39:18.281Z,4.24
2017-12-29T00:40:18.263Z,4.22
2017-12-29T00:41:18.249Z,4.28
2017-12-29T00:42:18.214Z,4.22
2017-12-29T00:43:18.188Z,4.12
2017-12-29T00:44:18.165Z,4.20
2017-12-29T00:45:18.141Z,4.20
2017-12-29T00:46:18.116Z,4.18
2017-12-29T00:47:18.203Z,4.12
2017-12-29T00:48:18.075Z,4.13
2017-12-29T00:49:18.048Z,4.18
2017-12-29T00:50:18.075Z,4.20
2017-12-29T00:51:18.012Z,4.12
2017-12-29T00:52:17.975Z,4.07
2017-12-29T00:53:17.953Z,4.10
2017-12-29T00:54:17.926Z,4.04
2017-12-29T00:55:17.906Z,4.12
2017-12-29T00:56:17.884Z,4.03
2017-12-29T00:57:17.853Z,3.99
2017-12-29T00:58:17.828Z,4.00
2017-12-29T00:59:17.806Z,4.04
2017-12-29T01:00:17.791Z,4.00
2017-12-29T01:01:17.758Z,4.03
2017-12-29T01:02:17.733Z,4.06
2017-12-29T01:03:17.712Z,3.99
2017-12-29T01:04:17.687Z,3.99
2017-12-29T01:05:17.663Z,4.02
2017-12-29T01:06:17.637Z,4.12
2017-12-29T01:07:17.615Z,3.99
2017-12-29T01:08:17.602Z,4.00
2017-12-29T01:09:17.567Z,4.10
2017-12-29T01:10:17.560Z,4.09
2017-12-29T01:11:17.523Z,4.09
2017-12-29T01:12:17.587Z,4.06
2017-12-29T01:13:17.470Z,4.12
2017-12-29T01:14:17.451Z,4.00
2017-12-29T01:15:17.448Z,4.04
2017-12-29T01:16:17.412Z,3.99
2017-12-29T01:17:17.378Z,4.00
2017-12-29T01:18:17.360Z,3.96
2017-12-29T01:19:17.347Z,3.92
2017-12-29T01:20:17.306Z,3.95
2017-12-29T01:21:17.290Z,3.92
2017-12-29T01:22:17.261Z,3.84
2017-12-29T01:23:17.241Z,3.96
2017-12-29T01:24:17.210Z,3.88
2017-12-29T01:25:17.191Z,3.99
2017-12-29T01:26:17.170Z,3.94
2017-12-29T01:27:17.140Z,3.94
2017-12-29T01:28:17.114Z,3.99
2017-12-29T01:29:17.097Z,3.95
2017-12-29T01:30:17.072Z,3.82
2017-12-29T01:31:17.044Z,3.88
2017-12-29T01:32:17.019Z,3.84
2017-12-29T01:33:16.999Z,3.86
2017-12-29T01:34:16.971Z,3.74
2017-12-29T01:35:16.949Z,3.82
2017-12-29T01:36:16.985Z,3.86
2017-12-29T01:37:16.908Z,3.71
2017-12-29T01:38:16.877Z,3.74
2017-12-29T01:39:16.851Z,3.85
2017-12-29T01:40:16.829Z,3.77
2017-12-29T01:41:16.808Z,3.76
2017-12-29T01:42:16.779Z,3.70
2017-12-29T01:43:16.758Z,3.76
2017-12-29T01:44:16.733Z,3.71
2017-12-29T01:45:16.796Z,3.68
2017-12-29T01:46:16.687Z,3.67
2017-12-29T01:47:16.660Z,3.73
2017-12-29T01:48:16.737Z,3.53
2017-12-29T01:49:16.611Z,3.59
2017-12-29T01:50:16.586Z,3.64
2017-12-29T01:51:16.569Z,3.58
2017-12-29T01:52:16.539Z,3.58
2017-12-29T01:53:16.515Z,3.58
2017-12-29T01:54:16.490Z,3.56
2017-12-29T01:55:16.468Z,3.56
2017-12-29T01:56:16.447Z,3.53
2017-12-29T01:57:16.426Z,3.52
2017-12-29T01:58:16.397Z,3.48
2017-12-29T01:59:16.377Z,3.37
2017-12-29T02:00:16.345Z,3.43
2017-12-29T02:01:16.324Z,3.43
2017-12-29T02:02:16.297Z,3.46
2017-12-29T02:03:16.284Z,3.36
2017-12-29T02:04:16.249Z,3.30
2017-12-29T02:05:16.223Z,3.26
2017-12-29T02:06:16.201Z,3.40
2017-12-29T02:07:16.176Z,3.36
2017-12-29T02:08:16.153Z,3.29
2017-12-29T02:09:16.128Z,3.41
2017-12-29T02:10:16.222Z,3.33
2017-12-29T02:11:16.088Z,3.33
2017-12-29T02:12:16.056Z,3.26
2017-12-29T02:13:16.037Z,3.33
2017-12-29T02:14:16.005Z,3.31
2017-12-29T02:15:15.983Z,3.29
2017-12-29T02:16:15.959Z,3.22
2017-12-29T02:17:15.936Z,3.21
2017-12-29T02:18:15.914Z,3.22
2017-12-29T02:19:15.885Z,3.29
2017-12-29T02:20:15.863Z,3.19
2017-12-29T02:21:15.964Z,3.16
2017-12-29T02:22:15.819Z,3.18
2017-12-29T02:23:15.792Z,3.18
2017-12-29T02:24:15.776Z,3.11
2017-12-29T02:25:15.736Z,3.19
2017-12-29T02:26:15.712Z,3.15
2017-12-29T02:27:15.695Z,3.15
2017-12-29T02:28:15.667Z,3.09
2017-12-29T02:29:15.654Z,3.11
2017-12-29T02:30:15.622Z,3.05
2017-12-29T02:31:15.592Z,3.05
2017-12-29T02:32:15.573Z,3.09
2017-12-29T02:33:15.543Z,3.09
2017-12-29T02:34:15.517Z,3.06
2017-12-29T02:35:15.492Z,3.01
2017-12-29T02:36:15.464Z,3.01
2017-12-29T02:37:15.442Z,3.00
2017-12-29T02:38:15.423Z,3.03
2017-12-29T02:39:15.393Z,2.94
2017-12-29T02:40:15.369Z,2.95
2017-12-29T02:41:15.360Z,2.94
2017-12-29T02:42:15.318Z,2.95
2017-12-29T02:43:15.294Z,2.98
2017-12-29T02:44:15.269Z,2.97
2017-12-29T02:45:15.248Z,3.00
2017-12-29T02:46:15.219Z,3.00
2017-12-29T02:47:15.194Z,3.01
2017-12-29T02:48:15.175Z,2.93
2017-12-29T02:49:15.264Z,2.98
2017-12-29T02:50:15.122Z,3.01
2017-12-29T02:51:15.097Z,2.98
2017-12-29T02:52:15.128Z,2.87
2017-12-29T02:53:15.048Z,2.93
2017-12-29T02:54:15.027Z,2.88
2017-12-29T02:55:14.998Z,2.76
2017-12-29T02:56:14.969Z,2.79
2017-12-29T02:57:14.956Z,2.73
2017-12-29T02:58:14.919Z,2.73
2017-12-29T02:59:14.898Z,2.83
2017-12-29T03:00:14.933Z,2.73
2017-12-29T03:01:14.858Z,2.70
2017-12-29T03:02:14.824Z,2.75
2017-12-29T03:03:14.829Z,2.68
2017-12-29T03:04:14.771Z,2.73
2017-12-29T03:05:14.746Z,2.70
2017-12-29T03:06:14.720Z,2.75
2017-12-29T03:07:14.695Z,2.65
2017-12-29T03:08:14.684Z,2.69
2017-12-29T03:09:14.665Z,2.69
2017-12-29T03:10:14.621Z,2.72
2017-12-29T03:11:14.604Z,2.64
2017-12-29T03:12:14.575Z,2.70
2017-12-29T03:13:14.545Z,2.68
2017-12-29T03:14:14.525Z,2.64
2017-12-29T03:15:14.495Z,2.65
2017-12-29T03:16:14.483Z,2.55
2017-12-29T03:17:14.447Z,2.58
2017-12-29T03:18:14.420Z,2.61
2017-12-29T03:19:14.396Z,2.64
2017-12-29T03:20:14.376Z,2.65
2017-12-29T03:21:14.347Z,2.62
2017-12-29T03:22:14.384Z,2.58
2017-12-29T03:23:14.298Z,2.59
2017-12-29T03:24:14.274Z,2.62
2017-12-29T03:25:14.289Z,2.61
2017-12-29T03:26:14.223Z,2.62
2017-12-29T03:27:14.196Z,2.59
2017-12-29T03:28:14.176Z,2.54
2017-12-29T03:29:14.147Z,2.58
2017-12-29T03:30:14.122Z,2.61
2017-12-29T03:31:14.095Z,2.58
2017-12-29T03:32:14.072Z,2.54
2017-12-29T03:33:14.045Z,2.55
2017-12-29T03:34:14.022Z,2.59
2017-12-29T03:35:13.992Z,2.54
2017-12-29T03:36:13.971Z,2.57
2017-12-29T03:37:13.943Z,2.51
2017-12-29T03:38:13.922Z,2.55
2017-12-29T03:39:13.901Z,2.61
2017-12-29T03:40:13.871Z,2.59
2017-12-29T03:41:13.844Z,2.58
2017-12-29T03:42:13.815Z,2.51
2017-12-29T03:43:13.800Z,2.54
2017-12-29T03:44:13.772Z,2.55
2017-12-29T03:45:13.744Z,2.50
2017-12-29T03:46:13.715Z,2.50
2017-12-29T03:47:13.749Z,2.50
2017-12-29T03:48:13.675Z,2.54
2017-12-29T03:49:13.643Z,2.52
2017-12-29T03:50:13.616Z,2.52
2017-12-29T03:51:13.592Z,2.47
2017-12-29T03:52:13.570Z,2.54
2017-12-29T03:53:13.543Z,2.52
2017-12-29T03:54:13.515Z,2.54
2017-12-29T03:55:13.493Z,2.50
2017-12-29T03:56:13.470Z,2.51
2017-12-29T03:57:13.448Z,2.52
2017-12-29T03:58:13.540Z,2.51
2017-12-29T03:59:13.391Z,2.51
2017-12-29T04:00:13.365Z,2.52
2017-12-29T04:01:13.344Z,2.44
2017-12-29T04:02:13.313Z,2.43
2017-12-29T04:03:13.293Z,2.47
2017-12-29T04:04:13.319Z,2.43
2017-12-29T04:05:13.237Z,2.46
2017-12-29T04:06:13.224Z,2.54
2017-12-29T04:07:13.187Z,2.52
2017-12-29T04:08:13.167Z,2.52
2017-12-29T04:09:13.136Z,2.51
2017-12-29T04:10:13.112Z,2.52
2017-12-29T04:11:13.087Z,2.43
2017-12-29T04:12:13.061Z,2.51
2017-12-29T04:13:13.037Z,2.39
2017-12-29T04:14:13.008Z,2.41
2017-12-29T04:15:13.006Z,2.44
2017-12-29T04:16:12.960Z,2.44
2017-12-29T04:17:12.936Z,2.40
2017-12-29T04:18:12.911Z,2.40
2017-12-29T04:19:12.884Z,2.34
2017-12-29T04:20:12.873Z,2.32
2017-12-29T04:21:12.835Z,2.36
2017-12-29T04:22:12.808Z,2.33
2017-12-29T04:23:12.911Z,2.39
2017-12-29T04:24:12.758Z,2.39
2017-12-29T04:25:12.742Z,2.43
2017-12-29T04:26:12.766Z,2.37
2017-12-29T04:27:12.684Z,2.37
2017-12-29T04:28:12.665Z,2.37
2017-12-29T04:29:12.635Z,2.39
2017-12-29T04:30:12.608Z,2.44
2017-12-29T04:31:12.579Z,2.37
2017-12-29T04:32:12.562Z,2.30
2017-12-29T04:33:12.535Z,2.41
2017-12-29T04:34:12.507Z,2.41
2017-12-29T04:35:12.480Z,2.39
2017-12-29T04:36:12.454Z,2.37
2017-12-29T04:37:12.431Z,2.30
2017-12-29T04:38:12.403Z,2.44
2017-12-29T04:39:12.378Z,2.44
2017-12-29T04:40:12.406Z,2.39
2017-12-29T04:41:12.326Z,2.34
2017-12-29T04:42:12.312Z,2.26
2017-12-29T04:43:12.275Z,2.37
2017-12-29T04:44:12.250Z,2.37
2017-12-29T04:45:12.224Z,2.32
2017-12-29T04:46:12.210Z,2.37
2017-12-29T04:47:12.175Z,2.36
2017-12-29T04:48:12.147Z,2.43
2017-12-29T04:49:12.128Z,2.33
2017-12-29T04:50:12.096Z,2.36
2017-12-29T04:51:12.079Z,2.36
2017-12-29T04:52:12.051Z,2.25
2017-12-29T04:53:12.021Z,2.41
2017-12-29T04:54:11.997Z,2.39
2017-12-29T04:55:11.971Z,2.26
2017-12-29T04:56:11.944Z,2.30
2017-12-29T04:57:11.921Z,2.33
2017-12-29T04:58:11.893Z,2.37
2017-12-29T04:59:11.890Z,2.40
2017-12-29T05:00:11.851Z,2.37
2017-12-29T05:01:11.820Z,2.37
2017-12-29T05:02:11.874Z,2.32
2017-12-29T05:03:11.765Z,2.28
2017-12-29T05:04:11.739Z,2.37
2017-12-29T05:05:11.732Z,2.26
2017-12-29T05:06:11.689Z,2.39
2017-12-29T05:07:11.662Z,2.28
2017-12-29T05:08:11.696Z,2.30
2017-12-29T05:09:11.611Z,2.28
2017-12-29T05:10:11.588Z,2.25
2017-12-29T05:11:11.569Z,2.23
2017-12-29T05:12:11.533Z,2.36
2017-12-29T05:13:11.510Z,2.23
2017-12-29T05:14:11.483Z,2.28
2017-12-29T05:15:11.458Z,2.28
2017-12-29T05:16:11.437Z,2.22
2017-12-29T05:17:11.413Z,2.22
2017-12-29T05:18:11.383Z,2.14
2017-12-29T05:19:11.356Z,2.16
2017-12-29T05:20:11.330Z,2.18
2017-12-29T05:21:11.308Z,2.18
2017-12-29T05:22:11.280Z,2.25
2017-12-29T05:23:11.257Z,2.16
2017-12-29T05:24:11.252Z,2.21
2017-12-29T05:25:11.207Z,2.15
2017-12-29T05:26:11.176Z,2.18
2017-12-29T05:27:11.153Z,2.21
2017-12-29T05:28:11.126Z,2.14
2017-12-29T05:29:11.102Z,2.16
2017-12-29T05:30:11.077Z,2.19
2017-12-29T05:31:11.055Z,2.21
2017-12-29T05:32:11.027Z,2.15
2017-12-29T05:33:11.002Z,2.12
2017-12-29T05:34:10.976Z,2.19
2017-12-29T05:35:10.955Z,2.10
2017-12-29T05:36:10.923Z,2.25
2017-12-29T05:37:10.920Z,2.21
2017-12-29T05:38:10.973Z,2.25
2017-12-29T05:39:10.845Z,2.22
2017-12-29T05:40:10.826Z,2.26
2017-12-29T05:41:10.808Z,2.25
2017-12-29T05:42:10.765Z,2.26
2017-12-29T05:43:10.746Z,2.30
2017-12-29T05:44:10.720Z,2.26
2017-12-29T05:45:10.696Z,2.26
2017-12-29T05:46:10.682Z,2.26
2017-12-29T05:47:10.644Z,2.26
2017-12-29T05:48:10.616Z,2.26
2017-12-29T05:49:10.587Z,2.22
2017-12-29T05:50:10.563Z,2.15
2017-12-29T05:51:10.538Z,2.18
2017-12-29T05:52:10.515Z,2.18
2017-12-29T05:53:10.487Z,2.16
2017-12-29T05:54:10.472Z,2.15
2017-12-29T05:55:10.436Z,2.28
2017-12-29T05:56:10.422Z,2.26
2017-12-29T05:57:10.385Z,2.28
2017-12-29T05:58:10.396Z,2.25
2017-12-29T05:59:10.332Z,2.14
2017-12-29T06:00:10.306Z,2.22
2017-12-29T06:01:10.291Z,2.22
2017-12-29T06:02:10.253Z,2.18
2017-12-29T06:03:10.295Z,2.18
2017-12-29T06:04:10.202Z,2.10
2017-12-29T06:05:10.180Z,2.07
2017-12-29T06:06:10.167Z,2.01
2017-12-29T06:07:10.126Z,2.10
2017-12-29T06:08:10.100Z,2.08
2017-12-29T06:09:10.091Z,2.01
2017-12-29T06:10:10.048Z,2.01
2017-12-29T06:11:10.022Z,2.01
2017-12-29T06:12:10.001Z,1.98
2017-12-29T06:13:09.971Z,2.00
2017-12-29T06:14:09.948Z,1.97
2017-12-29T06:15:09.966Z,1.93
2017-12-29T06:16:09.893Z,1.92
2017-12-29T06:17:09.885Z,1.93
2017-12-29T06:18:09.843Z,1.97
2017-12-29T06:19:09.819Z,1.93
2017-12-29T06:20:09.793Z,1.85
2017-12-29T06:21:09.764Z,1.93
2017-12-29T06:22:09.739Z,1.92
2017-12-29T06:23:09.712Z,1.89
2017-12-29T06:24:09.690Z,1.93
2017-12-29T06:25:09.680Z,1.76
2017-12-29T06:26:09.634Z,1.82
2017-12-29T06:27:09.629Z,1.81
2017-12-29T06:28:09.582Z,1.78
2017-12-29T06:29:09.567Z,1.85
2017-12-29T06:30:09.536Z,1.79
2017-12-29T06:31:09.507Z,1.81
2017-12-29T06:32:09.486Z,1.88
2017-12-29T06:33:09.458Z,1.85
2017-12-29T06:34:09.427Z,1.84
2017-12-29T06:35:09.401Z,1.84
2017-12-29T06:36:09.377Z,1.79
2017-12-29T06:37:09.349Z,1.92
2017-12-29T06:38:09.326Z,1.84
2017-12-29T06:39:09.298Z,1.79
2017-12-29T06:40:09.271Z,1.88
2017-12-29T06:41:09.247Z,1.93
2017-12-29T06:42:09.240Z,1.79
2017-12-29T06:43:09.199Z,1.79
2017-12-29T06:44:09.167Z,1.89
2017-12-29T06:45:09.255Z,1.84
2017-12-29T06:46:09.115Z,1.86
2017-12-29T06:47:09.089Z,1.92
2017-12-29T06:48:09.073Z,1.82
2017-12-29T06:49:09.037Z,1.78
2017-12-29T06:50:09.014Z,1.79
2017-12-29T06:51:08.989Z,1.81
2017-12-29T06:52:08.966Z,1.78
2017-12-29T06:53:08.936Z,1.79
2017-12-29T06:54:08.909Z,1.75
2017-12-29T06:55:08.883Z,1.76
2017-12-29T06:56:08.856Z,1.81
2017-12-29T06:57:08.839Z,1.84
2017-12-29T06:58:08.803Z,1.85
2017-12-29T06:59:08.779Z,1.86
2017-12-29T07:00:08.775Z,1.84
2017-12-29T07:01:08.736Z,1.79
2017-12-29T07:02:08.698Z,1.86
2017-12-29T07:03:08.675Z,1.81
2017-12-29T07:04:08.650Z,1.82
2017-12-29T07:05:08.624Z,1.85
2017-12-29T07:06:08.598Z,1.82
2017-12-29T07:07:08.569Z,1.86
2017-12-29T07:08:08.545Z,1.79
2017-12-29T07:09:08.530Z,1.82
2017-12-29T07:10:08.492Z,1.82
2017-12-29T07:11:08.467Z,1.82
2017-12-29T07:12:08.442Z,1.81
2017-12-29T07:13:08.414Z,1.82
2017-12-29T07:14:08.391Z,1.88
2017-12-29T07:15:08.364Z,1.79
2017-12-29T07:16:08.337Z,1.85
2017-12-29T07:17:08.319Z,1.82
2017-12-29T07:18:08.294Z,1.78
2017-12-29T07:19:08.260Z,1.81
2017-12-29T07:20:08.241Z,1.81
2017-12-29T07:21:08.311Z,1.93
2017-12-29T07:22:08.180Z,1.75
2017-12-29T07:23:08.152Z,1.75
2017-12-29T07:24:08.158Z,1.76
2017-12-29T07:25:08.103Z,1.85
2017-12-29T07:26:08.075Z,1.76
2017-12-29T07:27:08.049Z,1.74
2017-12-29T07:28:08.024Z,1.71
2017-12-29T07:29:07.998Z,1.68
2017-12-29T07:30:08.032Z,1.89
2017-12-29T07:31:07.950Z,1.75
2017-12-29T07:32:07.921Z,1.75
2017-12-29T07:33:07.894Z,1.79
2017-12-29T07:34:07.868Z,1.75
2017-12-29T07:35:07.842Z,1.85
2017-12-29T07:36:07.818Z,1.78
2017-12-29T07:37:07.790Z,1.79
2017-12-29T07:38:07.766Z,1.75
2017-12-29T07:39:07.750Z,1.68
2017-12-29T07:40:07.713Z,1.78
2017-12-29T07:41:07.697Z,1.74
2017-12-29T07:42:07.668Z,1.78
2017-12-29T07:43:07.635Z,1.78
2017-12-29T07:44:07.610Z,1.75
2017-12-29T07:45:07.583Z,1.78
2017-12-29T07:46:07.566Z,1.76
2017-12-29T07:47:07.530Z,1.79
2017-12-29T07:48:07.506Z,1.81
2017-12-29T07:49:07.487Z,1.82
2017-12-29T07:50:07.453Z,1.82
2017-12-29T07:51:07.428Z,1.78
2017-12-29T07:52:07.400Z,1.82
2017-12-29T07:53:07.376Z,1.76
2017-12-29T07:54:07.346Z,1.79
2017-12-29T07:55:07.322Z,1.75
2017-12-29T07:56:07.299Z,1.79
2017-12-29T07:57:07.420Z,1.82
2017-12-29T07:58:07.255Z,1.66
2017-12-29T07:59:07.219Z,1.78
2017-12-29T08:00:07.238Z,1.67
2017-12-29T08:01:07.177Z,1.71
2017-12-29T08:02:07.141Z,1.67
2017-12-29T08:03:07.164Z,1.71
2017-12-29T08:04:07.089Z,1.76
2017-12-29T08:05:07.064Z,1.84
2017-12-29T08:06:07.038Z,1.85
2017-12-29T08:07:07.017Z,1.82
2017-12-29T08:08:06.984Z,1.86
2017-12-29T08:09:06.960Z,1.82
2017-12-29T08:10:06.934Z,1.78
2017-12-29T08:11:06.905Z,1.82
2017-12-29T08:12:06.883Z,1.79
2017-12-29T08:13:06.857Z,1.82
2017-12-29T08:14:06.828Z,1.79
2017-12-29T08:15:06.803Z,1.84
2017-12-29T08:16:06.779Z,1.82
2017-12-29T08:17:06.755Z,1.82
2017-12-29T08:18:06.725Z,1.97
2017-12-29T08:19:06.705Z,1.92
2017-12-29T08:20:06.714Z,1.92
2017-12-29T08:21:06.656Z,1.93
2017-12-29T08:22:06.771Z,1.93
2017-12-29T08:23:06.598Z,1.95
2017-12-29T08:24:06.580Z,2.01
2017-12-29T08:25:06.610Z,1.98
2017-12-29T08:26:06.523Z,1.98
2017-12-29T08:27:06.494Z,1.98
2017-12-29T08:28:06.472Z,2.08
2017-12-29T08:29:06.450Z,2.04
2017-12-29T08:30:06.418Z,2.01
2017-12-29T08:31:06.391Z,2.07
2017-12-29T08:32:06.374Z,2.04
2017-12-29T08:33:06.341Z,2.10
2017-12-29T08:34:06.314Z,2.15
2017-12-29T08:35:06.293Z,2.15
2017-12-29T08:36:06.271Z,2.19
2017-12-29T08:37:06.248Z,2.18
2017-12-29T08:38:06.233Z,2.19
2017-12-29T08:39:06.204Z,2.19
2017-12-29T08:40:06.161Z,2.15
2017-12-29T08:41:06.136Z,2.19
2017-12-29T08:42:06.109Z,2.18
2017-12-29T08:43:06.082Z,2.19
2017-12-29T08:44:06.060Z,2.10
2017-12-29T08:45:06.045Z,2.15
2017-12-29T08:46:06.004Z,2.19
2017-12-29T08:47:05.984Z,2.18
2017-12-29T08:48:05.959Z,2.15
2017-12-29T08:49:05.938Z,2.15
2017-12-29T08:50:05.903Z,2.10
2017-12-29T08:51:05.898Z,2.23
2017-12-29T08:52:05.854Z,2.14
2017-12-29T08:53:05.829Z,2.28
2017-12-29T08:54:05.800Z,2.25
2017-12-29T08:55:05.780Z,2.25
2017-12-29T08:56:05.750Z,2.22
2017-12-29T08:57:05.728Z,2.34
2017-12-29T08:58:05.726Z,2.30
2017-12-29T08:59:05.707Z,2.26
2017-12-29T09:00:05.648Z,2.34
2017-12-29T09:01:05.741Z,2.23
2017-12-29T09:02:05.605Z,2.34
2017-12-29T09:03:05.575Z,2.25
2017-12-29T09:04:05.600Z,2.43
2017-12-29T09:05:05.526Z,2.34
2017-12-29T09:06:05.494Z,2.39
2017-12-29T09:07:05.472Z,2.36
2017-12-29T09:08:05.446Z,2.34
2017-12-29T09:09:05.423Z,2.32
2017-12-29T09:10:05.392Z,2.34
2017-12-29T09:11:05.369Z,2.44
2017-12-29T09:12:05.343Z,2.41
2017-12-29T09:13:05.319Z,2.34
2017-12-29T09:14:05.299Z,2.47
2017-12-29T09:15:05.265Z,2.36
2017-12-29T09:16:05.243Z,2.39
2017-12-29T09:17:05.215Z,2.51
2017-12-29T09:18:05.188Z,2.55
2017-12-29T09:19:05.165Z,2.51
2017-12-29T09:20:05.139Z,2.55
2017-12-29T09:21:05.120Z,2.46
2017-12-29T09:22:05.087Z,2.50
2017-12-29T09:23:05.210Z,2.51
2017-12-29T09:24:05.038Z,2.58
2017-12-29T09:25:05.015Z,2.52
2017-12-29T09:26:04.990Z,2.54
2017-12-29T09:27:04.963Z,2.57
2017-12-29T09:28:04.934Z,2.54
2017-12-29T09:29:04.915Z,2.61
2017-12-29T09:30:04.884Z,2.58
2017-12-29T09:31:04.858Z,2.57
2017-12-29T09:32:04.908Z,2.61
2017-12-29T09:33:04.808Z,2.52
2017-12-29T09:34:04.904Z,2.72
2017-12-29T09:35:04.757Z,2.73
2017-12-29T09:36:04.732Z,2.69
2017-12-29T09:37:04.807Z,2.70
2017-12-29T09:38:04.683Z,2.83
2017-12-29T09:39:04.661Z,2.70
2017-12-29T09:40:04.652Z,2.87
2017-12-29T09:41:04.608Z,2.79
2017-12-29T09:42:04.597Z,2.73
2017-12-29T09:43:04.555Z,2.83
2017-12-29T09:44:04.537Z,2.87
2017-12-29T09:45:04.504Z,2.85
2017-12-29T09:46:04.484Z,2.93
2017-12-29T09:47:04.462Z,2.97
2017-12-29T09:48:04.431Z,2.97
2017-12-29T09:49:04.403Z,3.05
2017-12-29T09:50:04.381Z,3.01
2017-12-29T09:51:04.369Z,3.03
2017-12-29T09:52:04.351Z,3.12
2017-12-29T09:53:04.303Z,3.09
2017-12-29T09:54:04.280Z,3.12
2017-12-29T09:55:04.278Z,3.16
2017-12-29T09:56:04.229Z,3.21
2017-12-29T09:57:04.209Z,3.21
2017-12-29T09:58:04.180Z,3.19
2017-12-29T09:59:04.255Z,3.18
2017-12-29T10:00:04.153Z,3.19
2017-12-29T10:01:04.124Z,3.29
2017-12-29T10:02:04.087Z,3.31
2017-12-29T10:03:04.051Z,3.33
2017-12-29T10:04:04.042Z,3.31
2017-12-29T10:05:04.044Z,3.27
2017-12-29T10:06:03.980Z,3.41
2017-12-29T10:07:03.958Z,3.34
2017-12-29T10:08:03.928Z,3.50
2017-12-29T10:09:03.906Z,3.40
2017-12-29T10:10:03.874Z,3.37
2017-12-29T10:11:03.864Z,3.50
2017-12-29T10:12:03.827Z,3.50
2017-12-29T10:13:03.803Z,3.50
2017-12-29T10:14:03.785Z,3.58
2017-12-29T10:15:03.751Z,3.55
2017-12-29T10:16:03.727Z,3.64
2017-12-29T10:17:03.706Z,3.61
2017-12-29T10:18:03.675Z,3.61
2017-12-29T10:19:03.657Z,3.61
2017-12-29T10:20:03.625Z,3.67
2017-12-29T10:21:03.599Z,3.78
2017-12-29T10:22:03.578Z,3.78
2017-12-29T10:23:03.556Z,3.78
2017-12-29T10:24:03.527Z,3.81
2017-12-29T10:25:03.505Z,3.86
2017-12-29T10:26:03.479Z,3.78
2017-12-29T10:27:03.451Z,3.89
2017-12-29T10:28:03.431Z,3.95
2017-12-29T10:29:03.411Z,3.94
2017-12-29T10:30:03.382Z,3.94
2017-12-29T10:31:03.350Z,4.06
2017-12-29T10:32:03.326Z,4.13
2017-12-29T10:33:03.305Z,4.12
2017-12-29T10:34:03.275Z,4.25
2017-12-29T10:35:03.298Z,4.18
2017-12-29T10:36:03.248Z,4.60
2017-12-29T10:37:03.206Z,5.49
2017-12-29T10:38:03.178Z,6.29
2017-12-29T10:39:03.154Z,7.01
2017-12-29T10:40:03.127Z,7.56
2017-12-29T10:41:03.108Z,7.98
2017-12-29T10:42:03.078Z,7.93
2017-12-29T10:43:03.054Z,7.88
2017-12-29T10:44:03.063Z,8.21
2017-12-29T10:45:03.006Z,8.01
2017-12-29T10:46:02.992Z,8.14
2017-12-29T10:47:02.959Z,8.21
2017-12-29T10:48:02.936Z,8.11
2017-12-29T10:49:02.920Z,7.37
2017-12-29T10:50:02.894Z,6.72
2017-12-29T10:51:02.868Z,6.25
2017-12-29T10:52:02.848Z,6.28
2017-12-29T10:53:02.823Z,6.05
2017-12-29T10:54:02.798Z,6.25
2017-12-29T10:55:02.775Z,6.07
2017-12-29T10:56:02.757Z,5.97
2017-12-29T10:57:02.737Z,5.80
2017-12-29T10:58:02.706Z,5.64
2017-12-29T10:59:02.681Z,5.54
2017-12-29T11:00:02.683Z,5.37
2017-12-29T11:01:02.636Z,5.38
2017-12-29T11:02:02.614Z,5.46
2017-12-29T11:03:02.629Z,6.53
2017-12-29T11:04:02.570Z,7.08
2017-12-29T11:05:02.554Z,7.93
2017-12-29T11:06:02.530Z,7.93
2017-12-29T11:07:02.501Z,7.99
2017-12-29T11:08:02.480Z,8.23
2017-12-29T11:09:02.456Z,8.34
2017-12-29T11:10:02.432Z,8.18
2017-12-29T11:11:02.434Z,8.05
2017-12-29T11:12:02.397Z,7.64
2017-12-29T11:13:02.370Z,7.69
2017-12-29T11:14:02.401Z,7.85
2017-12-29T11:15:02.328Z,7.75
2017-12-29T11:16:02.300Z,7.67
2017-12-29T11:17:02.280Z,7.64
2017-12-29T11:18:02.259Z,7.91
2017-12-29T11:19:02.234Z,8.20
2017-12-29T11:20:02.208Z,8.45
2017-12-29T11:21:02.189Z,8.79
2017-12-29T11:22:02.164Z,9.08
2017-12-29T11:23:02.140Z,9.13
2017-12-29T11:24:02.118Z,9.26
2017-12-29T11:25:02.103Z,9.27
2017-12-29T11:26:02.073Z,9.33
2017-12-29T11:27:02.054Z,9.24
2017-12-29T11:28:02.028Z,9.31
2017-12-29T11:29:02.007Z,9.33
2017-12-29T11:30:01.994Z,9.22
2017-12-29T11:31:01.968Z,9.03
2017-12-29T11:32:01.942Z,8.64
2017-12-29T11:33:01.920Z,8.61
2017-12-29T11:34:01.957Z,8.60
2017-12-29T11:35:01.877Z,9.08
2017-12-29T11:36:01.942Z,9.05
2017-12-29T11:37:01.830Z,8.99
2017-12-29T11:38:01.805Z,8.66
2017-12-29T11:39:01.789Z,8.63
2017-12-29T11:40:01.773Z,8.17
2017-12-29T11:41:01.741Z,8.03
2017-12-29T11:42:01.721Z,7.93
2017-12-29T11:43:01.701Z,7.95
2017-12-29T11:44:01.680Z,7.93
2017-12-29T11:45:01.659Z,7.70
2017-12-29T11:46:01.634Z,7.43
2017-12-29T11:47:01.607Z,7.44
2017-12-29T11:48:01.588Z,7.62
2017-12-29T11:49:01.566Z,7.83
2017-12-29T11:50:01.542Z,8.01
2017-12-29T11:51:01.526Z,8.03
2017-12-29T11:52:01.501Z,7.84
2017-12-29T11:53:01.478Z,7.64
2017-12-29T11:54:01.464Z,7.47
2017-12-29T11:55:01.435Z,7.31
2017-12-29T11:56:01.415Z,7.15
2017-12-29T11:57:01.396Z,7.21
2017-12-29T11:58:01.364Z,6.97
2017-12-29T11:59:01.343Z,6.85
2017-12-29T12:00:01.329Z,6.82
2017-12-29T12:01:01.298Z,6.77
2017-12-29T12:02:01.323Z,6.72
2017-12-29T12:03:01.263Z,6.72
2017-12-29T12:04:01.232Z,6.71
2017-12-29T12:05:01.216Z,6.53
2017-12-29T12:06:01.240Z,6.52
2017-12-29T12:08:01.155Z,6.46
2017-12-29T12:09:01.226Z,6.39
2017-12-29T12:10:01.104Z,6.29
2017-12-29T12:11:01.077Z,6.28
2017-12-29T12:12:01.077Z,6.06
2017-12-29T12:13:01.035Z,6.13
2017-12-29T12:14:01.020Z,6.09
2017-12-29T12:15:00.988Z,6.12
2017-12-29T12:16:00.963Z,6.19
2017-12-29T12:17:00.941Z,6.15
2017-12-29T12:18:00.921Z,6.09
2017-12-29T12:19:00.903Z,6.09
2017-12-29T12:20:00.897Z,6.01
2017-12-29T12:21:00.851Z,6.09
2017-12-29T12:22:00.830Z,6.25
2017-12-29T12:23:00.805Z,6.34
2017-12-29T12:24:00.782Z,6.31
2017-12-29T12:25:00.759Z,6.26
2017-12-29T12:26:00.740Z,6.41
2017-12-29T12:27:00.722Z,6.31
2017-12-29T12:28:00.693Z,6.47
2017-12-29T12:29:00.672Z,6.78
2017-12-29T12:30:00.650Z,7.03
2017-12-29T12:31:00.768Z,7.23
2017-12-29T12:32:00.614Z,7.28
2017-12-29T12:33:00.581Z,7.00
2017-12-29T12:34:00.566Z,6.75
2017-12-29T12:35:00.540Z,6.57
2017-12-29T12:36:00.512Z,6.56
2017-12-29T12:37:00.551Z,6.70
2017-12-29T12:38:00.471Z,6.53
2017-12-29T12:39:00.447Z,6.53
2017-12-29T12:40:00.430Z,6.46
2017-12-29T12:41:00.451Z,6.50
2017-12-29T12:42:00.381Z,6.43
2017-12-29T12:43:00.367Z,6.36
2017-12-29T12:44:00.338Z,6.31
2017-12-29T12:45:00.318Z,6.17
2017-12-29T12:46:00.289Z,6.01
2017-12-29T12:47:00.266Z,5.98
2017-12-29T12:48:00.254Z,5.84
2017-12-29T12:49:00.222Z,5.84
2017-12-29T12:50:00.198Z,5.73
2017-12-29T12:51:00.176Z,5.74
2017-12-29T12:52:00.155Z,5.70
2017-12-29T12:53:00.138Z,5.54
2017-12-29T12:54:00.110Z,5.58
2017-12-29T12:55:00.096Z,5.51
2017-12-29T12:56:00.072Z,5.43
2017-12-29T12:57:00.042Z,5.31
2017-12-29T12:58:00.026Z,5.47
2017-12-29T12:59:00.002Z,5.46
2017-12-29T12:59:59.976Z,5.34
2017-12-29T13:00:59.953Z,5.40
2017-12-29T13:01:59.929Z,5.37
2017-12-29T13:02:59.907Z,5.37
2017-12-29T13:03:59.923Z,5.41
2017-12-29T13:04:59.859Z,5.26
2017-12-29T13:05:59.835Z,5.36
2017-12-29T13:06:59.906Z,5.33
2017-12-29T13:07:59.787Z,5.33
2017-12-29T13:08:59.765Z,5.36
2017-12-29T13:09:59.758Z,5.38
2017-12-29T13:10:59.723Z,5.37
2017-12-29T13:11:59.697Z,5.37
2017-12-29T13:12:59.672Z,5.38
2017-12-29T13:13:59.683Z,5.33
2017-12-29T13:14:59.625Z,5.33
2017-12-29T13:15:59.604Z,5.40
2017-12-29T13:16:59.578Z,5.40
2017-12-29T13:17:59.555Z,5.47
2017-12-29T13:18:59.533Z,5.38